TimeEDT,TemperatureF,Dew PointF,Humidity,Sea Level PressureIn,VisibilityMPH,Wind Direction,Wind SpeedMPH,Gust SpeedMPH,PrecipitationIn,Events,Conditions,WindDirDegrees,DateUTC
12:53 AM,57.9,50.0,75,29.73,8.0,East,8.1,-,N/A,,Overcast,90,2012-04-02 04:53:00
1:53 AM,55.9,48.0,75,29.75,7.0,ENE,13.8,-,N/A,,Mostly Cloudy,60,2012-04-02 05:53:00
3:53 AM,50.0,44.1,80,29.78,5.0,East,13.8,-,N/A,,Haze,90,2012-04-02 07:53:00
4:53 AM,46.9,41.0,80,29.80,5.0,East,18.4,26.5,N/A,,Haze,90,2012-04-02 08:53:00
5:53 AM,46.0,37.9,73,29.83,10.0,East,17.3,28.8,N/A,,Mostly Cloudy,90,2012-04-02 09:53:00
6:53 AM,45.0,37.9,76,29.88,10.0,East,13.8,-,N/A,,Scattered Clouds,90,2012-04-02 10:53:00
7:53 AM,44.1,36.0,73,29.90,10.0,East,15.0,-,N/A,,Partly Cloudy,100,2012-04-02 11:53:00
8:53 AM,45.0,34.0,65,29.92,10.0,East,17.3,-,N/A,,Clear,100,2012-04-02 12:53:00
9:53 AM,48.0,35.1,61,29.92,10.0,East,15.0,24.2,N/A,,Clear,100,2012-04-02 13:53:00
10:53 AM,51.1,36.0,56,29.95,10.0,ESE,13.8,21.9,N/A,,Clear,110,2012-04-02 14:53:00
11:53 AM,54.0,35.1,49,29.96,10.0,East,15.0,-,N/A,,Clear,100,2012-04-02 15:53:00
12:53 PM,57.0,37.0,47,29.96,10.0,East,16.1,-,N/A,,Clear,100,2012-04-02 16:53:00
1:53 PM,59.0,36.0,42,29.94,10.0,East,16.1,23.0,N/A,,Clear,100,2012-04-02 17:53:00
2:53 PM,61.0,37.0,41,29.93,10.0,ESE,16.1,-,N/A,,Clear,110,2012-04-02 18:53:00
3:53 PM,63.0,37.0,38,29.93,10.0,SE,10.4,-,N/A,,Clear,140,2012-04-02 19:53:00
4:53 PM,64.9,35.1,33,29.92,10.0,SE,10.4,18.4,N/A,,Clear,130,2012-04-02 20:53:00
5:53 PM,64.9,35.1,33,29.91,10.0,SE,9.2,-,N/A,,Clear,140,2012-04-02 21:53:00
6:53 PM,64.0,34.0,33,29.90,10.0,ESE,13.8,-,N/A,,Clear,110,2012-04-02 22:53:00
7:53 PM,60.1,35.1,39,29.91,10.0,ESE,8.1,-,N/A,,Clear,120,2012-04-02 23:53:00
8:53 PM,55.0,36.0,49,29.91,10.0,ESE,6.9,-,N/A,,Clear,120,2012-04-03 00:53:00
9:53 PM,51.1,37.9,61,29.93,10.0,East,9.2,-,N/A,,Clear,100,2012-04-03 01:53:00
10:53 PM,52.0,37.0,57,29.94,10.0,East,8.1,-,N/A,,Clear,100,2012-04-03 02:53:00
11:53 PM,51.1,37.9,61,29.95,10.0,SE,4.6,-,N/A,,Mostly Cloudy,130,2012-04-03 03:53:00